createdAt,value
2018-05-19T00:00:29.176Z,19.35
2018-05-19T00:02:56.752Z,17.37
2018-05-19T00:05:24.304Z,18.80
2018-05-19T00:07:51.874Z,20.10
2018-05-19T00:10:19.416Z,17.12
2018-05-19T00:12:46.962Z,17.98
2018-05-19T00:15:14.506Z,18.42
2018-05-19T00:17:42.078Z,18.55
2018-05-19T00:20:09.621Z,16.83
2018-05-19T00:22:43.546Z,18.65
2018-05-19T00:25:11.142Z,17.73
2018-05-19T00:27:38.711Z,20.40
2018-05-19T00:30:06.291Z,18.02
2018-05-19T00:32:33.853Z,18.48
2018-05-19T00:35:01.405Z,19.08
2018-05-19T00:37:28.978Z,20.17
2018-05-19T00:39:56.547Z,20.05
2018-05-19T00:42:24.126Z,18.50
2018-05-19T00:44:51.679Z,18.42
2018-05-19T00:47:19.286Z,19.25
2018-05-19T00:49:46.835Z,18.67
2018-05-19T00:52:15.146Z,16.77
2018-05-19T00:54:54.762Z,19.70
2018-05-19T00:57:23.103Z,18.15
2018-05-19T00:59:50.664Z,20.05
2018-05-19T01:02:18.211Z,18.42
2018-05-19T01:04:45.786Z,20.90
2018-05-19T01:07:13.355Z,18.50
2018-05-19T01:09:40.895Z,18.77
2018-05-19T01:12:08.439Z,16.20
2018-05-19T01:14:36.001Z,17.55
2018-05-19T01:17:03.639Z,20.12
2018-05-19T01:19:31.170Z,16.67
2018-05-19T01:21:58.723Z,19.87
2018-05-19T01:24:26.306Z,16.02
2018-05-19T01:26:53.855Z,17.77
2018-05-19T01:29:21.395Z,16.92
2018-05-19T01:31:48.999Z,18.35
2018-05-19T01:34:16.574Z,18.25
2018-05-19T01:36:44.146Z,18.65
2018-05-19T01:39:11.694Z,18.80
2018-05-19T01:41:39.225Z,16.80
2018-05-19T01:44:06.795Z,17.23
2018-05-19T01:46:34.374Z,16.33
2018-05-19T01:49:01.913Z,16.62
2018-05-19T01:51:29.454Z,18.48
2018-05-19T01:53:57.770Z,17.73
2018-05-19T01:56:25.309Z,17.95
2018-05-19T01:58:52.862Z,18.65
2018-05-19T02:01:21.179Z,20.02
2018-05-19T02:03:48.733Z,19.95
2018-05-19T02:06:16.285Z,18.25
2018-05-19T02:08:43.845Z,18.50
2018-05-19T02:11:11.409Z,18.25
2018-05-19T02:13:38.986Z,18.85
2018-05-19T02:16:06.559Z,18.12
2018-05-19T02:18:34.093Z,19.48
2018-05-19T02:21:02.413Z,19.65
2018-05-19T02:23:29.987Z,18.95
2018-05-19T02:25:57.534Z,17.05
2018-05-19T02:28:25.105Z,21.77
2018-05-19T02:30:52.674Z,20.45
2018-05-19T02:33:20.214Z,19.10
2018-05-19T02:35:47.803Z,18.08
2018-05-19T02:38:15.346Z,19.65
2018-05-19T02:40:42.895Z,20.35
2018-05-19T02:43:10.437Z,18.65
2018-05-19T02:45:38.751Z,22.50
2018-05-19T02:48:06.285Z,17.45
2018-05-19T02:50:34.613Z,20.00
2018-05-19T02:53:02.191Z,18.98
2018-05-19T02:55:29.752Z,16.70
2018-05-19T02:57:57.308Z,21.30
2018-05-19T03:00:24.849Z,16.85
2018-05-19T03:02:52.394Z,19.23
2018-05-19T03:05:20.698Z,19.85
2018-05-19T03:07:48.247Z,20.40
2018-05-19T03:10:15.806Z,16.77
2018-05-19T03:12:44.142Z,19.52
2018-05-19T03:15:11.696Z,19.33
2018-05-19T03:17:39.243Z,19.08
2018-05-19T03:20:06.791Z,18.45
2018-05-19T03:22:34.347Z,20.85
2018-05-19T03:25:01.914Z,19.42
2018-05-19T03:27:30.217Z,19.50
2018-05-19T03:29:57.753Z,21.17
2018-05-19T03:32:26.073Z,22.40
2018-05-19T03:34:53.609Z,20.67
2018-05-19T03:37:21.179Z,18.10
2018-05-19T03:39:48.730Z,18.85
2018-05-19T03:42:17.066Z,19.77
2018-05-19T03:44:44.619Z,19.98
2018-05-19T03:47:12.157Z,21.02
2018-05-19T03:49:39.703Z,18.08
2018-05-19T03:52:07.283Z,19.83
2018-05-19T03:54:34.890Z,19.90
2018-05-19T03:57:14.358Z,18.10
2018-05-19T03:59:54.491Z,17.52
2018-05-19T04:02:33.966Z,19.25
2018-05-19T04:05:01.518Z,19.80
2018-05-19T04:07:29.825Z,17.45
2018-05-19T04:09:57.460Z,18.92
2018-05-19T04:12:24.970Z,16.92
2018-05-19T04:14:52.514Z,21.42
2018-05-19T04:17:20.073Z,21.80
2018-05-19T04:19:47.618Z,19.52
2018-05-19T04:22:15.912Z,20.55
2018-05-19T04:24:43.490Z,22.33
2018-05-19T04:27:11.035Z,19.37
2018-05-19T04:29:38.581Z,18.65
2018-05-19T04:32:06.922Z,19.17
2018-05-19T04:34:34.458Z,20.12
2018-05-19T04:37:02.002Z,20.83
2018-05-19T04:39:29.566Z,20.60
2018-05-19T04:41:57.993Z,22.08
2018-05-19T04:44:25.548Z,20.45
2018-05-19T04:46:53.097Z,19.67
2018-05-19T04:49:20.666Z,19.27
2018-05-19T04:51:48.229Z,23.25
2018-05-19T04:54:15.778Z,21.45
2018-05-19T04:56:43.392Z,19.92
2018-05-19T04:59:10.954Z,19.35
2018-05-19T05:01:38.494Z,21.50
2018-05-19T05:04:06.154Z,21.65
2018-05-19T05:06:33.730Z,19.90
2018-05-19T05:09:01.269Z,23.80
2018-05-19T05:11:28.815Z,23.50
2018-05-19T05:13:57.181Z,19.60
2018-05-19T05:16:24.695Z,22.77
2018-05-19T05:18:52.262Z,21.00
2018-05-19T05:21:19.812Z,22.05
2018-05-19T05:23:47.382Z,22.20
2018-05-19T05:26:14.952Z,23.00
2018-05-19T05:28:42.526Z,21.80
2018-05-19T05:31:10.069Z,20.73
2018-05-19T05:33:37.614Z,21.20
2018-05-19T05:36:05.932Z,23.10
2018-05-19T05:38:33.483Z,21.70
2018-05-19T05:41:01.054Z,23.42
2018-05-19T05:43:28.601Z,21.65
2018-05-19T05:45:56.204Z,24.35
2018-05-19T05:48:23.750Z,24.45
2018-05-19T05:50:51.298Z,24.90
2018-05-19T05:53:18.837Z,22.35
2018-05-19T05:55:47.193Z,22.95
2018-05-19T05:58:14.774Z,23.77
2018-05-19T06:00:43.114Z,23.95
2018-05-19T06:03:10.695Z,24.05
2018-05-19T06:05:38.271Z,23.73
2018-05-19T06:08:05.847Z,20.85
2018-05-19T06:10:34.170Z,23.20
2018-05-19T06:13:02.108Z,23.73
2018-05-19T06:15:30.419Z,22.15
2018-05-19T06:17:57.972Z,22.42
2018-05-19T06:20:25.533Z,23.35
2018-05-19T06:22:53.087Z,22.10
2018-05-19T06:25:21.422Z,22.10
2018-05-19T06:27:48.964Z,22.00
2018-05-19T06:30:16.511Z,22.75
2018-05-19T06:32:44.082Z,22.60
2018-05-19T06:35:11.663Z,22.87
2018-05-19T06:37:39.239Z,21.02
2018-05-19T06:40:06.791Z,21.05
2018-05-19T06:42:35.258Z,19.75
2018-05-19T06:45:02.815Z,22.95
2018-05-19T06:47:30.382Z,23.48
2018-05-19T06:49:57.921Z,20.60
2018-05-19T06:52:26.262Z,22.25
2018-05-19T06:54:53.814Z,21.90
2018-05-19T06:57:21.389Z,21.05
2018-05-19T06:59:48.934Z,21.10
2018-05-19T07:02:16.532Z,22.83
2018-05-19T07:04:44.116Z,21.60
2018-05-19T07:07:11.655Z,21.33
2018-05-19T07:09:39.214Z,22.17
2018-05-19T07:12:06.775Z,20.37
2018-05-19T07:14:34.349Z,21.27
2018-05-19T07:17:01.910Z,22.75
2018-05-19T07:19:29.469Z,20.65
2018-05-19T07:21:57.042Z,22.70
2018-05-19T07:24:24.581Z,21.00
2018-05-19T07:26:52.176Z,21.23
2018-05-19T07:29:19.728Z,22.20
2018-05-19T07:31:47.275Z,20.95
2018-05-19T07:34:14.853Z,22.73
2018-05-19T07:36:42.397Z,25.58
2018-05-19T07:39:09.937Z,24.17
2018-05-19T07:41:38.267Z,23.05
2018-05-19T07:44:05.846Z,25.75
2018-05-19T07:46:33.407Z,23.35
2018-05-19T07:49:00.954Z,25.10
2018-05-19T07:51:28.510Z,25.45
2018-05-19T07:53:56.074Z,24.70
2018-05-19T07:56:23.664Z,26.20
2018-05-19T07:58:51.258Z,21.75
2018-05-19T08:01:19.673Z,24.83
2018-05-19T08:03:47.222Z,26.08
2018-05-19T08:06:14.863Z,26.08
2018-05-19T08:08:42.439Z,27.52
2018-05-19T08:11:10.769Z,25.75
2018-05-19T08:13:38.343Z,26.50
2018-05-19T08:16:05.923Z,27.00
2018-05-19T08:18:33.529Z,25.48
2018-05-19T08:21:01.100Z,28.02
2018-05-19T08:23:28.653Z,26.73
2018-05-19T08:25:57.014Z,28.77
2018-05-19T08:28:25.467Z,26.95
2018-05-19T08:30:53.731Z,26.35
2018-05-19T08:33:21.278Z,27.98
2018-05-19T08:35:48.817Z,27.80
2018-05-19T08:38:17.159Z,29.15
2018-05-19T08:40:44.711Z,31.50
2018-05-19T08:43:12.279Z,28.70
2018-05-19T08:45:39.834Z,27.52
2018-05-19T08:48:07.393Z,28.95
2018-05-19T08:50:35.008Z,27.92
2018-05-19T08:53:02.553Z,28.52
2018-05-19T08:55:30.183Z,28.80
2018-05-19T08:57:57.755Z,26.65
2018-05-19T09:00:25.366Z,27.98
2018-05-19T09:02:52.941Z,25.52
2018-05-19T09:05:21.327Z,27.92
2018-05-19T09:07:49.638Z,25.48
2018-05-19T09:10:17.176Z,25.55
2018-05-19T09:12:45.526Z,25.55
2018-05-19T09:15:13.082Z,26.00
2018-05-19T09:17:40.642Z,24.92
2018-05-19T09:20:08.199Z,22.83
2018-05-19T09:22:35.778Z,23.02
2018-05-19T09:25:03.356Z,24.63
2018-05-19T09:27:30.906Z,27.35
2018-05-19T09:29:58.468Z,23.80
2018-05-19T09:32:26.043Z,24.50
2018-05-19T09:34:53.596Z,21.62
2018-05-19T09:37:21.190Z,24.23
2018-05-19T09:39:49.530Z,24.50
2018-05-19T09:42:17.102Z,24.10
2018-05-19T09:44:44.681Z,23.98
2018-05-19T09:47:12.256Z,23.25
2018-05-19T09:49:39.836Z,23.85
2018-05-19T09:52:08.155Z,22.77
2018-05-19T09:54:35.699Z,24.73
2018-05-19T09:57:03.247Z,22.45
2018-05-19T09:59:31.573Z,23.95
2018-05-19T10:01:59.122Z,25.62
2018-05-19T10:04:26.676Z,25.67
2018-05-19T10:06:54.295Z,22.52
2018-05-19T10:09:21.847Z,21.67
2018-05-19T10:11:49.419Z,25.70
2018-05-19T10:14:16.988Z,26.25
2018-05-19T10:16:44.558Z,25.10
2018-05-19T10:19:12.168Z,25.12
2018-05-19T10:21:39.778Z,24.55
2018-05-19T10:24:08.233Z,24.45
2018-05-19T10:26:36.727Z,23.10
2018-05-19T10:29:04.299Z,24.00
2018-05-19T10:31:33.847Z,24.27
2018-05-19T10:34:02.531Z,22.60
2018-05-19T10:36:30.090Z,23.87
2018-05-19T10:38:57.682Z,19.95
2018-05-19T10:41:26.193Z,20.33
2018-05-19T10:43:53.781Z,22.10
2018-05-19T10:46:31.558Z,23.20
2018-05-19T10:48:59.138Z,22.73
2018-05-19T10:51:26.693Z,24.25
2018-05-19T10:53:56.116Z,23.75
2018-05-19T10:56:24.458Z,23.87
2018-05-19T10:58:52.062Z,21.92
2018-05-19T11:01:19.833Z,24.35
2018-05-19T11:03:47.390Z,23.15
2018-05-19T11:06:14.935Z,25.90
2018-05-19T11:08:42.485Z,25.55
2018-05-19T11:11:10.034Z,25.10
2018-05-19T11:13:38.375Z,24.20
2018-05-19T11:16:05.942Z,21.92
2018-05-19T11:18:33.578Z,20.25
2018-05-19T11:21:01.124Z,18.08
2018-05-19T11:23:28.679Z,17.35
2018-05-19T11:25:56.992Z,19.23
2018-05-19T11:28:24.554Z,20.85
2018-05-19T11:30:53.067Z,22.98
2018-05-19T11:33:20.640Z,23.92
2018-05-19T11:35:48.247Z,20.75
2018-05-19T11:38:16.036Z,20.70
2018-05-19T11:40:43.599Z,19.85
2018-05-19T11:43:11.515Z,20.15
2018-05-19T11:45:39.071Z,21.42
2018-05-19T11:48:06.609Z,20.62
2018-05-19T11:50:34.191Z,21.08
2018-05-19T11:53:01.776Z,23.83
2018-05-19T11:55:29.355Z,23.58
2018-05-19T11:57:57.695Z,23.00
2018-05-19T12:00:25.229Z,21.33
2018-05-19T12:02:52.848Z,22.75
2018-05-19T12:05:21.215Z,23.10
2018-05-19T12:07:49.165Z,23.30
2018-05-19T12:10:17.932Z,20.48
2018-05-19T12:12:45.531Z,21.30
2018-05-19T12:15:13.108Z,22.92
2018-05-19T12:17:40.690Z,25.85
2018-05-19T12:20:08.270Z,23.50
2018-05-19T12:22:36.729Z,22.73
2018-05-19T12:25:04.291Z,25.83
2018-05-19T12:27:35.858Z,25.70
2018-05-19T12:30:03.502Z,24.73
2018-05-19T12:32:31.056Z,22.83
2018-05-19T12:34:58.656Z,22.48
2018-05-19T12:37:26.227Z,21.48
2018-05-19T12:39:54.623Z,18.35
2018-05-19T12:42:22.209Z,18.40
2018-05-19T12:44:49.756Z,19.48
2018-05-19T12:47:17.300Z,21.12
2018-05-19T12:49:44.851Z,21.70
2018-05-19T12:52:12.411Z,20.55
2018-05-19T12:54:39.960Z,20.02
2018-05-19T12:57:07.497Z,19.17
2018-05-19T12:59:35.059Z,19.50
2018-05-19T13:02:02.634Z,18.05
2018-05-19T13:04:30.215Z,16.80
2018-05-19T13:06:57.831Z,19.98
2018-05-19T13:09:26.513Z,21.73
2018-05-19T13:11:54.162Z,23.20
2018-05-19T13:14:21.705Z,23.75
2018-05-19T13:16:49.266Z,23.12
2018-05-19T13:19:16.818Z,20.25
2018-05-19T13:21:44.384Z,18.52
2018-05-19T13:24:11.939Z,20.33
2018-05-19T13:26:39.523Z,17.48
2018-05-19T13:29:07.402Z,18.33
2018-05-19T13:31:34.979Z,20.00
2018-05-19T13:34:02.544Z,21.90
2018-05-19T13:36:30.096Z,19.48
2018-05-19T13:38:57.639Z,19.23
2018-05-19T13:41:25.262Z,19.17
2018-05-19T13:43:53.603Z,19.45
2018-05-19T13:46:21.242Z,17.05
2018-05-19T13:48:48.814Z,18.95
2018-05-19T13:51:16.395Z,17.75
2018-05-19T13:53:43.943Z,14.85
2018-05-19T13:56:11.515Z,17.35
2018-05-19T13:58:39.156Z,18.12
2018-05-19T14:01:07.291Z,16.80
2018-05-19T14:03:34.867Z,15.88
2018-05-19T14:06:03.204Z,18.00
2018-05-19T14:08:30.780Z,17.37
2018-05-19T14:10:58.368Z,15.10
2018-05-19T14:13:25.929Z,14.87
2018-05-19T14:15:53.506Z,14.68
2018-05-19T14:18:21.826Z,15.32
2018-05-19T14:20:49.364Z,13.65
2018-05-19T14:23:16.909Z,13.52
2018-05-19T14:25:44.456Z,14.65
2018-05-19T14:28:12.003Z,14.00
2018-05-19T14:30:39.584Z,13.62
2018-05-19T14:33:07.160Z,13.85
2018-05-19T14:35:34.732Z,15.10
2018-05-19T14:38:02.300Z,13.70
2018-05-19T14:40:29.951Z,15.95
2018-05-19T14:42:57.435Z,12.75
2018-05-19T14:45:25.767Z,13.18
2018-05-19T14:47:53.309Z,12.20
2018-05-19T14:50:20.860Z,11.93
2018-05-19T14:52:58.440Z,12.45
2018-05-19T14:55:26.755Z,12.07
2018-05-19T14:57:54.347Z,11.27
2018-05-19T15:00:21.924Z,11.68
2018-05-19T15:02:49.566Z,12.98
2018-05-19T15:05:17.122Z,11.82
2018-05-19T15:07:44.716Z,11.93
2018-05-19T15:10:12.268Z,11.48
2018-05-19T15:12:39.813Z,10.20
2018-05-19T15:15:07.380Z,10.18
2018-05-19T15:17:34.922Z,9.77
2018-05-19T15:20:02.532Z,10.02
2018-05-19T15:22:30.267Z,9.70
2018-05-19T15:24:57.847Z,11.02
2018-05-19T15:27:25.421Z,9.85
2018-05-19T15:29:53.006Z,8.88
2018-05-19T15:32:20.574Z,9.02
2018-05-19T15:34:48.186Z,8.90
2018-05-19T15:37:15.737Z,8.65
2018-05-19T15:39:43.311Z,10.10
2018-05-19T15:42:10.854Z,8.98
2018-05-19T15:44:39.190Z,8.30
2018-05-19T15:47:06.764Z,7.75
2018-05-19T15:49:34.331Z,8.38
2018-05-19T15:52:01.926Z,9.15
2018-05-19T15:54:30.273Z,9.77
2018-05-19T15:56:57.837Z,10.15
2018-05-19T15:59:25.384Z,9.35
2018-05-19T16:01:53.004Z,9.13
2018-05-19T16:04:20.555Z,8.07
2018-05-19T16:06:48.122Z,8.10
2018-05-19T16:09:16.450Z,8.05
2018-05-19T16:11:44.024Z,7.43
2018-05-19T16:14:11.587Z,7.28
2018-05-19T16:16:39.186Z,5.68
2018-05-19T16:19:06.730Z,5.53
2018-05-19T16:21:35.116Z,5.10
2018-05-19T16:24:02.679Z,4.80
2018-05-19T16:26:30.253Z,4.75
2018-05-19T16:28:57.814Z,4.05
2018-05-19T16:31:25.349Z,5.12
2018-05-19T16:33:52.890Z,5.30
2018-05-19T16:36:20.491Z,6.00
2018-05-19T16:38:48.054Z,4.90
2018-05-19T16:41:15.591Z,3.10
2018-05-19T16:43:43.186Z,3.25
2018-05-19T16:46:10.740Z,2.70
2018-05-19T16:48:38.402Z,2.80
2018-05-19T16:51:05.889Z,2.72
2018-05-19T16:53:33.421Z,3.12
2018-05-19T16:56:00.965Z,2.47
2018-05-19T16:58:28.545Z,3.62
2018-05-19T17:00:56.099Z,4.90
2018-05-19T17:03:23.670Z,4.85
2018-05-19T17:05:51.267Z,3.58
2018-05-19T17:08:18.857Z,2.90
2018-05-19T17:10:47.168Z,7.72
2018-05-19T17:13:14.769Z,29.75
2018-05-19T17:15:42.372Z,25.12
2018-05-19T17:18:10.698Z,15.20
2018-05-19T17:20:38.251Z,6.40
2018-05-19T17:23:05.800Z,4.07
2018-05-19T17:25:33.357Z,3.75
2018-05-19T17:28:01.770Z,8.82
2018-05-19T17:30:29.240Z,11.23
2018-05-19T17:32:56.779Z,5.95
2018-05-19T17:35:24.319Z,8.88
2018-05-19T17:37:52.618Z,5.65
2018-05-19T17:40:20.962Z,4.05
2018-05-19T17:42:48.507Z,2.83
2018-05-19T17:45:16.063Z,3.12
2018-05-19T17:47:43.610Z,2.40
2018-05-19T17:50:11.166Z,2.22
2018-05-19T17:52:38.727Z,1.80
2018-05-19T17:55:06.287Z,2.10
2018-05-19T17:57:33.882Z,2.25
2018-05-19T18:00:01.416Z,1.95
2018-05-19T18:02:28.952Z,2.20
2018-05-19T18:04:56.500Z,2.55
2018-05-19T18:07:24.187Z,1.83
2018-05-19T18:09:51.711Z,2.28
2018-05-19T18:12:19.258Z,2.60
2018-05-19T18:14:46.790Z,2.25
2018-05-19T18:17:15.090Z,2.03
2018-05-19T18:19:42.663Z,2.55
2018-05-19T18:22:10.193Z,3.55
2018-05-19T18:24:38.498Z,3.47
2018-05-19T18:27:06.035Z,3.10
2018-05-19T18:29:34.534Z,3.08
2018-05-19T18:32:01.959Z,4.57
2018-05-19T18:34:29.533Z,2.25
2018-05-19T18:36:57.147Z,2.30
2018-05-19T18:39:24.688Z,2.78
2018-05-19T18:41:52.235Z,3.40
2018-05-19T18:44:20.601Z,3.03
2018-05-19T18:46:48.175Z,3.80
2018-05-19T18:49:15.705Z,2.75
2018-05-19T18:51:46.130Z,2.50
2018-05-19T18:54:13.698Z,1.95
2018-05-19T18:56:41.268Z,2.65
2018-05-19T18:59:08.834Z,2.28
2018-05-19T19:01:36.383Z,2.20
2018-05-19T19:04:04.006Z,2.03
2018-05-19T19:06:32.349Z,3.50
2018-05-19T19:08:59.923Z,2.75
2018-05-19T19:11:27.471Z,2.35
2018-05-19T19:13:55.031Z,2.12
2018-05-19T19:16:22.563Z,2.22
2018-05-19T19:18:50.130Z,2.10
2018-05-19T19:21:17.662Z,2.65
2018-05-19T19:23:45.200Z,2.08
2018-05-19T19:26:12.771Z,2.35
2018-05-19T19:28:40.354Z,2.03
2018-05-19T19:31:08.653Z,2.35
2018-05-19T19:33:36.207Z,1.90
2018-05-19T19:36:04.511Z,2.40
2018-05-19T19:38:32.127Z,2.10
2018-05-19T19:40:59.694Z,2.28
2018-05-19T19:43:27.234Z,2.25
2018-05-19T19:45:54.789Z,2.58
2018-05-19T19:48:22.366Z,2.10
2018-05-19T19:50:49.911Z,2.40
2018-05-19T19:53:17.466Z,2.08
2018-05-19T19:55:45.027Z,2.75
2018-05-19T19:58:12.601Z,2.47
2018-05-19T20:00:40.178Z,2.40
2018-05-19T20:03:07.719Z,2.53
2018-05-19T20:05:35.344Z,2.62
2018-05-19T20:08:02.906Z,2.50
2018-05-19T20:10:30.518Z,3.50
2018-05-19T20:12:58.130Z,3.55
2018-05-19T20:15:25.715Z,2.85
2018-05-19T20:17:54.034Z,3.08
2018-05-19T20:20:21.589Z,3.50
2018-05-19T20:22:49.165Z,3.67
2018-05-19T20:25:16.827Z,3.37
2018-05-19T20:27:44.420Z,3.37
2018-05-19T20:30:11.983Z,3.45
2018-05-19T20:32:39.582Z,3.60
2018-05-19T20:35:07.953Z,3.92
2018-05-19T20:37:35.543Z,3.30
2018-05-19T20:40:03.886Z,3.47
2018-05-19T20:42:31.486Z,3.10
2018-05-19T20:44:59.014Z,3.17
2018-05-19T20:47:26.599Z,3.78
2018-05-19T20:49:54.149Z,3.85
2018-05-19T20:52:21.735Z,4.05
2018-05-19T20:54:50.060Z,9.13
2018-05-19T20:57:17.659Z,10.73
2018-05-19T20:59:45.203Z,4.72
2018-05-19T21:02:12.767Z,5.05
2018-05-19T21:04:40.408Z,4.95
2018-05-19T21:07:07.979Z,4.80
2018-05-19T21:09:35.537Z,4.90
2018-05-19T21:12:03.102Z,4.45
2018-05-19T21:14:30.648Z,4.70
2018-05-19T21:16:58.960Z,4.65
2018-05-19T21:19:26.508Z,4.35
2018-05-19T21:21:54.053Z,3.53
2018-05-19T21:24:22.369Z,4.43
2018-05-19T21:26:49.946Z,3.85
2018-05-19T21:29:17.503Z,5.03
2018-05-19T21:31:45.056Z,4.57
2018-05-19T21:34:12.727Z,5.43
2018-05-19T21:36:40.267Z,5.03
2018-05-19T21:39:07.816Z,5.97
2018-05-19T21:41:36.132Z,5.47
2018-05-19T21:44:03.799Z,4.82
2018-05-19T21:46:31.364Z,4.20
2018-05-19T21:48:58.950Z,3.60
2018-05-19T21:51:26.594Z,4.30
2018-05-19T21:53:54.143Z,5.22
2018-05-19T21:56:21.723Z,4.93
2018-05-19T21:58:49.283Z,6.12
2018-05-19T22:01:16.824Z,5.25
2018-05-19T22:03:45.150Z,3.97
2018-05-19T22:06:12.701Z,5.72
2018-05-19T22:08:40.260Z,5.90
2018-05-19T22:11:07.784Z,6.47
2018-05-19T22:13:36.156Z,4.97
2018-05-19T22:16:04.484Z,4.07
2018-05-19T22:18:32.046Z,3.42
2018-05-19T22:20:59.606Z,3.62
2018-05-19T22:23:27.175Z,3.42
2018-05-19T22:25:54.720Z,3.35
2018-05-19T22:28:22.248Z,3.40
2018-05-19T22:30:49.779Z,4.65
2018-05-19T22:33:17.328Z,4.78
2018-05-19T22:35:44.908Z,4.62
2018-05-19T22:38:12.455Z,6.07
2018-05-19T22:40:40.015Z,4.43
2018-05-19T22:43:07.599Z,4.18
2018-05-19T22:45:35.131Z,3.40
2018-05-19T22:48:03.421Z,3.12
2018-05-19T22:50:31.026Z,2.90
2018-05-19T22:52:58.586Z,2.83
2018-05-19T22:55:26.147Z,3.22
2018-05-19T22:57:53.682Z,3.37
2018-05-19T23:00:23.107Z,4.00
2018-05-19T23:02:50.629Z,4.80
2018-05-19T23:05:18.950Z,6.25
2018-05-19T23:07:46.609Z,4.75
2018-05-19T23:10:14.166Z,4.65
2018-05-19T23:12:41.739Z,4.07
2018-05-19T23:15:09.282Z,4.37
2018-05-19T23:17:36.834Z,4.70
2018-05-19T23:20:05.156Z,5.20
2018-05-19T23:22:40.578Z,4.53
2018-05-19T23:25:08.159Z,4.30
2018-05-19T23:27:35.699Z,4.72
2018-05-19T23:30:03.271Z,4.78
2018-05-19T23:32:30.796Z,4.60
2018-05-19T23:34:58.330Z,4.90
2018-05-19T23:37:25.880Z,5.22
2018-05-19T23:39:53.415Z,5.10
2018-05-19T23:42:21.009Z,6.10
2018-05-19T23:44:48.571Z,5.50
2018-05-19T23:47:16.097Z,5.25
2018-05-19T23:49:44.404Z,5.78
2018-05-19T23:52:11.937Z,5.45
2018-05-19T23:54:40.345Z,4.85
2018-05-19T23:57:07.929Z,4.90
2018-05-19T23:59:35.485Z,5.28
